sensor_id;sensor_type;location;lat;lon;timestamp;P1;durP1;ratioP1;P2;durP2;ratioP2
42518;SDS011;28147;47.520;18.920;2024-02-26T00:01:44;31.42;;;16.58;;
42518;SDS011;28147;47.520;18.920;2024-02-26T00:04:09;28.73;;;16.85;;
42518;SDS011;28147;47.520;18.920;2024-02-26T00:06:35;35.45;;;18.80;;
42518;SDS011;28147;47.520;18.920;2024-02-26T00:09:01;32.13;;;18.73;;
42518;SDS011;28147;47.520;18.920;2024-02-26T00:11:30;32.92;;;18.63;;
42518;SDS011;28147;47.520;18.920;2024-02-26T00:13:56;34.05;;;18.52;;
42518;SDS011;28147;47.520;18.920;2024-02-26T00:16:21;31.88;;;18.25;;
42518;SDS011;28147;47.520;18.920;2024-02-26T00:18:46;29.23;;;17.10;;
42518;SDS011;28147;47.520;18.920;2024-02-26T00:21:12;32.13;;;16.75;;
42518;SDS011;28147;47.520;18.920;2024-02-26T00:23:37;32.90;;;17.15;;
42518;SDS011;28147;47.520;18.920;2024-02-26T00:26:02;26.67;;;15.90;;
42518;SDS011;28147;47.520;18.920;2024-02-26T00:28:28;25.95;;;15.35;;
42518;SDS011;28147;47.520;18.920;2024-02-26T00:30:54;23.60;;;14.18;;
42518;SDS011;28147;47.520;18.920;2024-02-26T00:33:21;28.58;;;15.10;;
42518;SDS011;28147;47.520;18.920;2024-02-26T00:35:47;24.58;;;14.70;;
42518;SDS011;28147;47.520;18.920;2024-02-26T00:38:12;23.35;;;14.40;;
42518;SDS011;28147;47.520;18.920;2024-02-26T00:40:38;25.00;;;14.50;;
42518;SDS011;28147;47.520;18.920;2024-02-26T00:43:03;26.40;;;14.07;;
42518;SDS011;28147;47.520;18.920;2024-02-26T00:45:29;24.75;;;14.18;;
42518;SDS011;28147;47.520;18.920;2024-02-26T00:47:54;21.63;;;12.95;;
42518;SDS011;28147;47.520;18.920;2024-02-26T00:50:20;22.77;;;12.23;;
42518;SDS011;28147;47.520;18.920;2024-02-26T00:52:46;24.23;;;13.40;;
42518;SDS011;28147;47.520;18.920;2024-02-26T00:55:11;21.40;;;13.55;;
42518;SDS011;28147;47.520;18.920;2024-02-26T00:57:36;22.50;;;13.00;;
42518;SDS011;28147;47.520;18.920;2024-02-26T01:00:02;20.10;;;12.48;;
42518;SDS011;28147;47.520;18.920;2024-02-26T01:02:28;22.92;;;12.73;;
42518;SDS011;28147;47.520;18.920;2024-02-26T01:04:53;22.40;;;12.35;;
42518;SDS011;28147;47.520;18.920;2024-02-26T01:07:18;19.92;;;11.50;;
42518;SDS011;28147;47.520;18.920;2024-02-26T01:09:44;19.17;;;11.50;;
42518;SDS011;28147;47.520;18.920;2024-02-26T01:12:09;21.60;;;12.23;;
42518;SDS011;28147;47.520;18.920;2024-02-26T01:14:35;18.35;;;10.90;;
42518;SDS011;28147;47.520;18.920;2024-02-26T01:17:00;18.88;;;11.30;;
42518;SDS011;28147;47.520;18.920;2024-02-26T01:19:25;16.13;;;9.35;;
42518;SDS011;28147;47.520;18.920;2024-02-26T01:21:51;18.30;;;10.38;;
42518;SDS011;28147;47.520;18.920;2024-02-26T01:24:16;15.52;;;9.25;;
42518;SDS011;28147;47.520;18.920;2024-02-26T01:26:42;18.00;;;9.25;;
42518;SDS011;28147;47.520;18.920;2024-02-26T01:29:07;17.63;;;9.73;;
42518;SDS011;28147;47.520;18.920;2024-02-26T01:31:32;17.27;;;9.93;;
42518;SDS011;28147;47.520;18.920;2024-02-26T01:33:57;17.85;;;9.52;;
42518;SDS011;28147;47.520;18.920;2024-02-26T01:36:23;13.02;;;8.15;;
42518;SDS011;28147;47.520;18.920;2024-02-26T01:38:48;14.82;;;8.40;;
42518;SDS011;28147;47.520;18.920;2024-02-26T01:41:13;13.25;;;8.20;;
42518;SDS011;28147;47.520;18.920;2024-02-26T01:43:39;15.93;;;8.13;;
42518;SDS011;28147;47.520;18.920;2024-02-26T01:46:04;13.88;;;8.25;;
42518;SDS011;28147;47.520;18.920;2024-02-26T01:48:31;15.70;;;8.30;;
42518;SDS011;28147;47.520;18.920;2024-02-26T01:50:56;14.38;;;8.30;;
42518;SDS011;28147;47.520;18.920;2024-02-26T01:53:22;14.70;;;7.30;;
42518;SDS011;28147;47.520;18.920;2024-02-26T01:55:48;13.18;;;8.07;;
42518;SDS011;28147;47.520;18.920;2024-02-26T01:58:14;12.13;;;6.97;;
42518;SDS011;28147;47.520;18.920;2024-02-26T02:00:39;11.57;;;7.20;;
42518;SDS011;28147;47.520;18.920;2024-02-26T02:03:05;15.90;;;8.38;;
42518;SDS011;28147;47.520;18.920;2024-02-26T02:05:31;13.25;;;8.27;;
42518;SDS011;28147;47.520;18.920;2024-02-26T02:07:56;13.45;;;8.40;;
42518;SDS011;28147;47.520;18.920;2024-02-26T02:10:22;15.68;;;8.23;;
42518;SDS011;28147;47.520;18.920;2024-02-26T02:12:48;14.45;;;8.00;;
42518;SDS011;28147;47.520;18.920;2024-02-26T02:15:14;13.10;;;8.43;;
42518;SDS011;28147;47.520;18.920;2024-02-26T02:17:39;13.80;;;8.70;;
42518;SDS011;28147;47.520;18.920;2024-02-26T02:20:08;15.27;;;9.43;;
42518;SDS011;28147;47.520;18.920;2024-02-26T02:22:35;16.08;;;10.07;;
42518;SDS011;28147;47.520;18.920;2024-02-26T02:25:00;17.50;;;9.32;;
42518;SDS011;28147;47.520;18.920;2024-02-26T02:27:26;14.95;;;8.45;;
42518;SDS011;28147;47.520;18.920;2024-02-26T02:29:52;14.38;;;9.02;;
42518;SDS011;28147;47.520;18.920;2024-02-26T02:32:18;14.77;;;8.32;;
42518;SDS011;28147;47.520;18.920;2024-02-26T02:34:44;13.82;;;8.43;;
42518;SDS011;28147;47.520;18.920;2024-02-26T02:37:10;15.02;;;9.02;;
42518;SDS011;28147;47.520;18.920;2024-02-26T02:39:36;11.63;;;7.55;;
42518;SDS011;28147;47.520;18.920;2024-02-26T02:42:01;13.13;;;8.27;;
42518;SDS011;28147;47.520;18.920;2024-02-26T02:44:26;14.27;;;8.38;;
42518;SDS011;28147;47.520;18.920;2024-02-26T02:46:51;12.50;;;7.75;;
42518;SDS011;28147;47.520;18.920;2024-02-26T02:49:18;11.88;;;7.95;;
42518;SDS011;28147;47.520;18.920;2024-02-26T02:51:44;10.75;;;7.80;;
42518;SDS011;28147;47.520;18.920;2024-02-26T02:54:09;15.38;;;7.63;;
42518;SDS011;28147;47.520;18.920;2024-02-26T02:56:34;10.82;;;7.53;;
42518;SDS011;28147;47.520;18.920;2024-02-26T02:59:00;11.57;;;7.22;;
42518;SDS011;28147;47.520;18.920;2024-02-26T03:01:26;13.10;;;6.90;;
42518;SDS011;28147;47.520;18.920;2024-02-26T03:03:51;14.85;;;7.68;;
42518;SDS011;28147;47.520;18.920;2024-02-26T03:06:17;12.38;;;7.38;;
42518;SDS011;28147;47.520;18.920;2024-02-26T03:08:42;11.98;;;6.78;;
42518;SDS011;28147;47.520;18.920;2024-02-26T03:11:07;11.10;;;7.45;;
42518;SDS011;28147;47.520;18.920;2024-02-26T03:13:37;12.18;;;8.13;;
42518;SDS011;28147;47.520;18.920;2024-02-26T03:16:05;11.43;;;6.82;;
42518;SDS011;28147;47.520;18.920;2024-02-26T03:18:31;11.52;;;7.25;;
42518;SDS011;28147;47.520;18.920;2024-02-26T03:20:56;8.98;;;5.82;;
42518;SDS011;28147;47.520;18.920;2024-02-26T03:23:22;9.18;;;5.78;;
42518;SDS011;28147;47.520;18.920;2024-02-26T03:25:47;10.65;;;6.25;;
42518;SDS011;28147;47.520;18.920;2024-02-26T03:28:12;10.77;;;6.97;;
42518;SDS011;28147;47.520;18.920;2024-02-26T03:30:38;12.88;;;6.65;;
42518;SDS011;28147;47.520;18.920;2024-02-26T03:33:03;9.20;;;6.15;;
42518;SDS011;28147;47.520;18.920;2024-02-26T03:35:29;10.65;;;6.15;;
42518;SDS011;28147;47.520;18.920;2024-02-26T03:37:54;8.65;;;5.00;;
42518;SDS011;28147;47.520;18.920;2024-02-26T03:40:19;10.40;;;5.43;;
42518;SDS011;28147;47.520;18.920;2024-02-26T03:42:45;8.30;;;4.90;;
42518;SDS011;28147;47.520;18.920;2024-02-26T03:45:10;11.52;;;4.32;;
42518;SDS011;28147;47.520;18.920;2024-02-26T03:47:37;7.70;;;4.45;;
42518;SDS011;28147;47.520;18.920;2024-02-26T03:50:05;9.45;;;5.28;;
42518;SDS011;28147;47.520;18.920;2024-02-26T03:52:30;12.68;;;5.60;;
42518;SDS011;28147;47.520;18.920;2024-02-26T03:54:56;8.00;;;5.10;;
42518;SDS011;28147;47.520;18.920;2024-02-26T03:57:21;8.98;;;4.72;;
42518;SDS011;28147;47.520;18.920;2024-02-26T03:59:46;8.73;;;4.75;;
42518;SDS011;28147;47.520;18.920;2024-02-26T04:02:12;8.40;;;5.00;;
42518;SDS011;28147;47.520;18.920;2024-02-26T04:04:37;8.05;;;5.00;;
42518;SDS011;28147;47.520;18.920;2024-02-26T04:07:02;9.55;;;5.70;;
42518;SDS011;28147;47.520;18.920;2024-02-26T04:09:28;10.13;;;5.05;;
42518;SDS011;28147;47.520;18.920;2024-02-26T04:11:53;8.57;;;4.53;;
42518;SDS011;28147;47.520;18.920;2024-02-26T04:14:18;12.05;;;5.93;;
42518;SDS011;28147;47.520;18.920;2024-02-26T04:16:43;8.52;;;5.05;;
42518;SDS011;28147;47.520;18.920;2024-02-26T04:19:09;10.05;;;5.57;;
42518;SDS011;28147;47.520;18.920;2024-02-26T04:21:34;8.60;;;5.55;;
42518;SDS011;28147;47.520;18.920;2024-02-26T04:24:00;7.72;;;4.57;;
42518;SDS011;28147;47.520;18.920;2024-02-26T04:26:27;7.45;;;4.45;;
42518;SDS011;28147;47.520;18.920;2024-02-26T04:28:53;8.20;;;4.45;;
42518;SDS011;28147;47.520;18.920;2024-02-26T04:31:19;7.95;;;5.10;;
42518;SDS011;28147;47.520;18.920;2024-02-26T04:33:44;7.55;;;4.70;;
42518;SDS011;28147;47.520;18.920;2024-02-26T04:36:13;8.52;;;4.85;;
42518;SDS011;28147;47.520;18.920;2024-02-26T04:38:40;9.45;;;3.97;;
42518;SDS011;28147;47.520;18.920;2024-02-26T04:41:05;7.78;;;4.25;;
42518;SDS011;28147;47.520;18.920;2024-02-26T04:43:30;10.10;;;4.20;;
42518;SDS011;28147;47.520;18.920;2024-02-26T04:45:56;8.02;;;4.43;;
42518;SDS011;28147;47.520;18.920;2024-02-26T04:48:22;8.32;;;5.22;;
42518;SDS011;28147;47.520;18.920;2024-02-26T04:50:48;9.02;;;5.03;;
42518;SDS011;28147;47.520;18.920;2024-02-26T04:53:13;8.70;;;5.22;;
42518;SDS011;28147;47.520;18.920;2024-02-26T04:55:38;7.38;;;4.43;;
42518;SDS011;28147;47.520;18.920;2024-02-26T04:58:04;7.18;;;4.55;;
42518;SDS011;28147;47.520;18.920;2024-02-26T05:00:29;7.88;;;4.82;;
42518;SDS011;28147;47.520;18.920;2024-02-26T05:02:54;7.57;;;4.50;;
42518;SDS011;28147;47.520;18.920;2024-02-26T05:05:19;6.63;;;4.22;;
42518;SDS011;28147;47.520;18.920;2024-02-26T05:07:45;6.95;;;4.05;;
42518;SDS011;28147;47.520;18.920;2024-02-26T05:10:10;7.30;;;4.68;;
42518;SDS011;28147;47.520;18.920;2024-02-26T05:12:36;9.93;;;5.10;;
42518;SDS011;28147;47.520;18.920;2024-02-26T05:15:01;8.50;;;5.35;;
42518;SDS011;28147;47.520;18.920;2024-02-26T05:17:27;10.15;;;4.95;;
42518;SDS011;28147;47.520;18.920;2024-02-26T05:19:53;7.72;;;4.75;;
42518;SDS011;28147;47.520;18.920;2024-02-26T05:22:18;9.15;;;5.10;;
42518;SDS011;28147;47.520;18.920;2024-02-26T05:24:44;9.25;;;5.55;;
42518;SDS011;28147;47.520;18.920;2024-02-26T05:27:09;8.30;;;5.45;;
42518;SDS011;28147;47.520;18.920;2024-02-26T05:29:35;10.32;;;5.78;;
42518;SDS011;28147;47.520;18.920;2024-02-26T05:32:00;11.20;;;5.70;;
42518;SDS011;28147;47.520;18.920;2024-02-26T05:34:26;8.68;;;5.28;;
42518;SDS011;28147;47.520;18.920;2024-02-26T05:36:52;8.98;;;5.40;;
42518;SDS011;28147;47.520;18.920;2024-02-26T05:39:17;10.00;;;6.30;;
42518;SDS011;28147;47.520;18.920;2024-02-26T05:41:42;8.38;;;5.60;;
42518;SDS011;28147;47.520;18.920;2024-02-26T05:44:08;7.60;;;4.15;;
42518;SDS011;28147;47.520;18.920;2024-02-26T05:46:35;6.50;;;3.83;;
42518;SDS011;28147;47.520;18.920;2024-02-26T05:49:00;8.70;;;5.07;;
42518;SDS011;28147;47.520;18.920;2024-02-26T05:51:26;9.05;;;5.68;;
42518;SDS011;28147;47.520;18.920;2024-02-26T05:53:51;10.10;;;5.80;;
42518;SDS011;28147;47.520;18.920;2024-02-26T05:56:19;7.97;;;4.25;;
42518;SDS011;28147;47.520;18.920;2024-02-26T05:58:45;7.80;;;4.72;;
42518;SDS011;28147;47.520;18.920;2024-02-26T06:01:11;7.05;;;4.50;;
42518;SDS011;28147;47.520;18.920;2024-02-26T06:03:36;6.18;;;4.13;;
42518;SDS011;28147;47.520;18.920;2024-02-26T06:06:01;5.82;;;3.50;;
42518;SDS011;28147;47.520;18.920;2024-02-26T06:08:27;9.35;;;5.28;;
42518;SDS011;28147;47.520;18.920;2024-02-26T06:10:52;8.73;;;5.43;;
42518;SDS011;28147;47.520;18.920;2024-02-26T06:13:17;9.77;;;5.25;;
42518;SDS011;28147;47.520;18.920;2024-02-26T06:15:42;13.13;;;6.68;;
42518;SDS011;28147;47.520;18.920;2024-02-26T06:18:08;13.70;;;6.78;;
42518;SDS011;28147;47.520;18.920;2024-02-26T06:20:33;13.20;;;8.00;;
42518;SDS011;28147;47.520;18.920;2024-02-26T06:22:58;11.73;;;7.13;;
42518;SDS011;28147;47.520;18.920;2024-02-26T06:25:24;12.52;;;7.38;;
42518;SDS011;28147;47.520;18.920;2024-02-26T06:27:50;12.60;;;7.40;;
42518;SDS011;28147;47.520;18.920;2024-02-26T06:30:16;10.82;;;6.15;;
42518;SDS011;28147;47.520;18.920;2024-02-26T06:32:41;10.10;;;5.65;;
42518;SDS011;28147;47.520;18.920;2024-02-26T06:35:06;11.65;;;7.05;;
42518;SDS011;28147;47.520;18.920;2024-02-26T06:37:34;9.55;;;5.40;;
42518;SDS011;28147;47.520;18.920;2024-02-26T06:40:00;10.07;;;5.95;;
42518;SDS011;28147;47.520;18.920;2024-02-26T06:42:26;11.55;;;6.25;;
42518;SDS011;28147;47.520;18.920;2024-02-26T06:44:52;11.88;;;6.88;;
42518;SDS011;28147;47.520;18.920;2024-02-26T06:47:17;13.60;;;7.03;;
42518;SDS011;28147;47.520;18.920;2024-02-26T06:49:43;12.45;;;6.10;;
42518;SDS011;28147;47.520;18.920;2024-02-26T06:52:09;12.63;;;7.30;;
42518;SDS011;28147;47.520;18.920;2024-02-26T06:54:34;16.20;;;7.53;;
42518;SDS011;28147;47.520;18.920;2024-02-26T06:56:59;10.68;;;6.63;;
42518;SDS011;28147;47.520;18.920;2024-02-26T06:59:25;12.25;;;7.63;;
42518;SDS011;28147;47.520;18.920;2024-02-26T07:01:50;10.10;;;6.97;;
42518;SDS011;28147;47.520;18.920;2024-02-26T07:04:15;11.75;;;7.35;;
42518;SDS011;28147;47.520;18.920;2024-02-26T07:06:41;13.00;;;7.03;;
42518;SDS011;28147;47.520;18.920;2024-02-26T07:09:08;12.95;;;7.55;;
42518;SDS011;28147;47.520;18.920;2024-02-26T07:11:33;13.30;;;8.23;;
42518;SDS011;28147;47.520;18.920;2024-02-26T07:13:59;13.43;;;7.95;;
42518;SDS011;28147;47.520;18.920;2024-02-26T07:16:26;13.13;;;9.05;;
42518;SDS011;28147;47.520;18.920;2024-02-26T07:18:52;14.70;;;9.10;;
42518;SDS011;28147;47.520;18.920;2024-02-26T07:21:17;15.13;;;9.65;;
42518;SDS011;28147;47.520;18.920;2024-02-26T07:23:42;15.85;;;10.32;;
42518;SDS011;28147;47.520;18.920;2024-02-26T07:26:08;14.82;;;9.52;;
42518;SDS011;28147;47.520;18.920;2024-02-26T07:28:34;17.08;;;10.18;;
42518;SDS011;28147;47.520;18.920;2024-02-26T07:30:59;16.25;;;10.60;;
42518;SDS011;28147;47.520;18.920;2024-02-26T07:33:24;17.70;;;10.73;;
42518;SDS011;28147;47.520;18.920;2024-02-26T07:35:50;18.35;;;10.63;;
42518;SDS011;28147;47.520;18.920;2024-02-26T07:38:15;19.05;;;11.15;;
42518;SDS011;28147;47.520;18.920;2024-02-26T07:40:40;18.58;;;11.15;;
42518;SDS011;28147;47.520;18.920;2024-02-26T07:43:06;21.77;;;11.10;;
42518;SDS011;28147;47.520;18.920;2024-02-26T07:45:31;21.92;;;11.93;;
42518;SDS011;28147;47.520;18.920;2024-02-26T07:47:56;20.33;;;12.45;;
42518;SDS011;28147;47.520;18.920;2024-02-26T07:50:21;19.33;;;11.10;;
42518;SDS011;28147;47.520;18.920;2024-02-26T07:52:47;18.38;;;10.07;;
42518;SDS011;28147;47.520;18.920;2024-02-26T07:55:12;20.77;;;11.73;;
42518;SDS011;28147;47.520;18.920;2024-02-26T07:57:41;17.70;;;10.93;;
42518;SDS011;28147;47.520;18.920;2024-02-26T08:00:07;18.13;;;9.75;;
42518;SDS011;28147;47.520;18.920;2024-02-26T08:02:35;17.73;;;11.13;;
42518;SDS011;28147;47.520;18.920;2024-02-26T08:05:01;19.08;;;11.50;;
42518;SDS011;28147;47.520;18.920;2024-02-26T08:07:27;22.15;;;10.98;;
42518;SDS011;28147;47.520;18.920;2024-02-26T08:09:53;19.58;;;10.88;;
42518;SDS011;28147;47.520;18.920;2024-02-26T08:12:18;19.40;;;12.18;;
42518;SDS011;28147;47.520;18.920;2024-02-26T08:14:44;21.80;;;12.25;;
42518;SDS011;28147;47.520;18.920;2024-02-26T08:17:09;20.17;;;12.88;;
42518;SDS011;28147;47.520;18.920;2024-02-26T08:19:35;23.50;;;12.30;;
42518;SDS011;28147;47.520;18.920;2024-02-26T08:22:01;20.30;;;12.75;;
42518;SDS011;28147;47.520;18.920;2024-02-26T08:24:26;19.95;;;12.52;;
42518;SDS011;28147;47.520;18.920;2024-02-26T08:26:52;19.10;;;11.52;;
42518;SDS011;28147;47.520;18.920;2024-02-26T08:29:18;16.85;;;10.27;;
42518;SDS011;28147;47.520;18.920;2024-02-26T08:31:43;17.80;;;12.32;;
42518;SDS011;28147;47.520;18.920;2024-02-26T08:34:09;21.00;;;12.70;;
42518;SDS011;28147;47.520;18.920;2024-02-26T08:36:34;18.75;;;12.45;;
42518;SDS011;28147;47.520;18.920;2024-02-26T08:39:00;18.52;;;11.68;;
42518;SDS011;28147;47.520;18.920;2024-02-26T08:41:25;19.98;;;12.75;;
42518;SDS011;28147;47.520;18.920;2024-02-26T08:43:51;18.10;;;12.57;;
42518;SDS011;28147;47.520;18.920;2024-02-26T08:46:16;21.42;;;11.98;;
42518;SDS011;28147;47.520;18.920;2024-02-26T08:48:42;20.65;;;12.48;;
42518;SDS011;28147;47.520;18.920;2024-02-26T08:51:08;22.73;;;12.50;;
42518;SDS011;28147;47.520;18.920;2024-02-26T08:53:34;18.27;;;12.10;;
42518;SDS011;28147;47.520;18.920;2024-02-26T08:56:00;28.38;;;12.75;;
42518;SDS011;28147;47.520;18.920;2024-02-26T08:58:27;19.10;;;12.57;;
42518;SDS011;28147;47.520;18.920;2024-02-26T09:00:52;19.38;;;12.15;;
42518;SDS011;28147;47.520;18.920;2024-02-26T09:03:18;20.88;;;13.30;;
42518;SDS011;28147;47.520;18.920;2024-02-26T09:05:43;19.15;;;11.98;;
42518;SDS011;28147;47.520;18.920;2024-02-26T09:08:08;17.55;;;11.55;;
42518;SDS011;28147;47.520;18.920;2024-02-26T09:10:34;17.63;;;11.30;;
42518;SDS011;28147;47.520;18.920;2024-02-26T09:12:59;18.13;;;11.45;;
42518;SDS011;28147;47.520;18.920;2024-02-26T09:15:24;16.10;;;11.05;;
42518;SDS011;28147;47.520;18.920;2024-02-26T09:17:50;17.58;;;11.52;;
42518;SDS011;28147;47.520;18.920;2024-02-26T09:20:15;15.75;;;10.48;;
42518;SDS011;28147;47.520;18.920;2024-02-26T09:22:44;15.93;;;9.95;;
42518;SDS011;28147;47.520;18.920;2024-02-26T09:25:10;15.68;;;9.88;;
42518;SDS011;28147;47.520;18.920;2024-02-26T09:27:35;15.13;;;9.95;;
42518;SDS011;28147;47.520;18.920;2024-02-26T09:30:01;16.88;;;9.55;;
42518;SDS011;28147;47.520;18.920;2024-02-26T09:32:26;12.48;;;8.60;;
42518;SDS011;28147;47.520;18.920;2024-02-26T09:34:51;14.07;;;9.18;;
42518;SDS011;28147;47.520;18.920;2024-02-26T09:37:17;14.75;;;8.85;;
42518;SDS011;28147;47.520;18.920;2024-02-26T09:39:42;15.45;;;9.35;;
42518;SDS011;28147;47.520;18.920;2024-02-26T09:42:08;14.15;;;9.23;;
42518;SDS011;28147;47.520;18.920;2024-02-26T09:44:35;14.10;;;8.57;;
42518;SDS011;28147;47.520;18.920;2024-02-26T09:47:03;15.68;;;8.25;;
42518;SDS011;28147;47.520;18.920;2024-02-26T09:49:30;11.68;;;7.68;;
42518;SDS011;28147;47.520;18.920;2024-02-26T09:51:55;12.35;;;7.65;;
42518;SDS011;28147;47.520;18.920;2024-02-26T09:54:23;13.02;;;7.05;;
42518;SDS011;28147;47.520;18.920;2024-02-26T09:56:51;13.20;;;8.73;;
42518;SDS011;28147;47.520;18.920;2024-02-26T09:59:20;10.98;;;7.40;;
42518;SDS011;28147;47.520;18.920;2024-02-26T10:01:45;10.90;;;7.40;;
42518;SDS011;28147;47.520;18.920;2024-02-26T10:04:12;12.23;;;7.43;;
42518;SDS011;28147;47.520;18.920;2024-02-26T10:06:38;13.60;;;8.65;;
42518;SDS011;28147;47.520;18.920;2024-02-26T10:09:05;10.63;;;7.55;;
42518;SDS011;28147;47.520;18.920;2024-02-26T10:11:32;10.73;;;7.53;;
42518;SDS011;28147;47.520;18.920;2024-02-26T10:13:58;11.13;;;7.95;;
42518;SDS011;28147;47.520;18.920;2024-02-26T10:16:24;11.43;;;7.68;;
42518;SDS011;28147;47.520;18.920;2024-02-26T10:18:51;8.80;;;6.40;;
42518;SDS011;28147;47.520;18.920;2024-02-26T10:21:19;10.00;;;6.40;;
42518;SDS011;28147;47.520;18.920;2024-02-26T10:23:46;7.25;;;5.03;;
42518;SDS011;28147;47.520;18.920;2024-02-26T10:26:15;8.93;;;4.80;;
42518;SDS011;28147;47.520;18.920;2024-02-26T10:28:42;6.68;;;4.43;;
42518;SDS011;28147;47.520;18.920;2024-02-26T10:31:08;8.02;;;4.55;;
42518;SDS011;28147;47.520;18.920;2024-02-26T10:33:35;5.90;;;3.30;;
42518;SDS011;28147;47.520;18.920;2024-02-26T10:36:01;6.60;;;4.13;;
42518;SDS011;28147;47.520;18.920;2024-02-26T10:38:30;7.13;;;4.15;;
42518;SDS011;28147;47.520;18.920;2024-02-26T10:40:57;4.75;;;2.90;;
42518;SDS011;28147;47.520;18.920;2024-02-26T10:43:24;5.65;;;2.85;;
42518;SDS011;28147;47.520;18.920;2024-02-26T10:45:50;4.57;;;3.13;;
42518;SDS011;28147;47.520;18.920;2024-02-26T10:48:16;5.03;;;3.20;;
42518;SDS011;28147;47.520;18.920;2024-02-26T10:50:43;6.10;;;3.20;;
42518;SDS011;28147;47.520;18.920;2024-02-26T10:53:19;4.80;;;2.80;;
42518;SDS011;28147;47.520;18.920;2024-02-26T10:55:49;5.63;;;3.08;;
42518;SDS011;28147;47.520;18.920;2024-02-26T10:58:19;5.05;;;1.95;;
42518;SDS011;28147;47.520;18.920;2024-02-26T11:00:46;4.80;;;3.00;;
42518;SDS011;28147;47.520;18.920;2024-02-26T11:03:14;4.45;;;2.35;;
42518;SDS011;28147;47.520;18.920;2024-02-26T11:05:42;5.30;;;3.38;;
42518;SDS011;28147;47.520;18.920;2024-02-26T11:08:10;7.93;;;4.40;;
42518;SDS011;28147;47.520;18.920;2024-02-26T11:10:36;9.32;;;5.18;;
42518;SDS011;28147;47.520;18.920;2024-02-26T11:13:02;7.90;;;4.68;;
42518;SDS011;28147;47.520;18.920;2024-02-26T11:15:30;7.65;;;4.72;;
42518;SDS011;28147;47.520;18.920;2024-02-26T11:17:58;9.18;;;5.30;;
42518;SDS011;28147;47.520;18.920;2024-02-26T11:20:24;8.52;;;5.25;;
42518;SDS011;28147;47.520;18.920;2024-02-26T11:22:53;8.63;;;5.07;;
42518;SDS011;28147;47.520;18.920;2024-02-26T11:25:18;7.15;;;4.35;;
42518;SDS011;28147;47.520;18.920;2024-02-26T11:27:45;7.82;;;4.22;;
42518;SDS011;28147;47.520;18.920;2024-02-26T11:30:14;8.40;;;4.15;;
42518;SDS011;28147;47.520;18.920;2024-02-26T11:32:47;8.38;;;5.13;;
42518;SDS011;28147;47.520;18.920;2024-02-26T11:35:12;9.75;;;5.90;;
42518;SDS011;28147;47.520;18.920;2024-02-26T11:37:40;9.32;;;6.13;;
42518;SDS011;28147;47.520;18.920;2024-02-26T11:40:09;7.95;;;4.93;;
42518;SDS011;28147;47.520;18.920;2024-02-26T11:42:43;8.30;;;5.15;;
42518;SDS011;28147;47.520;18.920;2024-02-26T11:48:13;8.95;;;5.35;;
42518;SDS011;28147;47.520;18.920;2024-02-26T11:50:48;9.52;;;5.63;;
42518;SDS011;28147;47.520;18.920;2024-02-26T11:56:12;11.35;;;6.38;;
42518;SDS011;28147;47.520;18.920;2024-02-26T11:58:44;10.10;;;6.22;;
42518;SDS011;28147;47.520;18.920;2024-02-26T12:04:01;10.15;;;6.88;;
42518;SDS011;28147;47.520;18.920;2024-02-26T12:06:29;10.95;;;6.80;;
42518;SDS011;28147;47.520;18.920;2024-02-26T12:08:55;11.70;;;7.55;;
42518;SDS011;28147;47.520;18.920;2024-02-26T12:11:21;9.32;;;6.05;;
42518;SDS011;28147;47.520;18.920;2024-02-26T12:13:47;12.75;;;7.30;;
42518;SDS011;28147;47.520;18.920;2024-02-26T12:16:34;10.63;;;6.75;;
42518;SDS011;28147;47.520;18.920;2024-02-26T12:19:02;10.65;;;6.43;;
42518;SDS011;28147;47.520;18.920;2024-02-26T12:21:30;8.55;;;5.80;;
42518;SDS011;28147;47.520;18.920;2024-02-26T12:23:55;11.93;;;6.30;;
42518;SDS011;28147;47.520;18.920;2024-02-26T12:26:20;11.02;;;6.60;;
42518;SDS011;28147;47.520;18.920;2024-02-26T12:28:46;11.32;;;6.30;;
42518;SDS011;28147;47.520;18.920;2024-02-26T12:31:12;11.27;;;6.60;;
42518;SDS011;28147;47.520;18.920;2024-02-26T12:33:38;8.93;;;6.13;;
42518;SDS011;28147;47.520;18.920;2024-02-26T12:36:03;9.32;;;5.82;;
42518;SDS011;28147;47.520;18.920;2024-02-26T12:38:29;8.85;;;5.47;;
42518;SDS011;28147;47.520;18.920;2024-02-26T12:40:55;11.05;;;5.95;;
42518;SDS011;28147;47.520;18.920;2024-02-26T12:43:20;7.75;;;5.60;;
42518;SDS011;28147;47.520;18.920;2024-02-26T12:45:46;9.30;;;6.00;;
42518;SDS011;28147;47.520;18.920;2024-02-26T12:48:12;10.15;;;6.57;;
42518;SDS011;28147;47.520;18.920;2024-02-26T12:50:39;9.82;;;6.63;;
42518;SDS011;28147;47.520;18.920;2024-02-26T12:53:04;14.38;;;6.80;;
42518;SDS011;28147;47.520;18.920;2024-02-26T12:55:30;12.10;;;7.13;;
42518;SDS011;28147;47.520;18.920;2024-02-26T12:57:59;8.68;;;6.03;;
42518;SDS011;28147;47.520;18.920;2024-02-26T13:00:26;7.85;;;5.50;;
42518;SDS011;28147;47.520;18.920;2024-02-26T13:02:52;10.73;;;5.13;;
42518;SDS011;28147;47.520;18.920;2024-02-26T13:05:20;7.07;;;4.68;;
42518;SDS011;28147;47.520;18.920;2024-02-26T13:07:46;8.82;;;4.97;;
42518;SDS011;28147;47.520;18.920;2024-02-26T13:10:12;7.72;;;4.80;;
42518;SDS011;28147;47.520;18.920;2024-02-26T13:12:45;8.02;;;5.10;;
42518;SDS011;28147;47.520;18.920;2024-02-26T13:15:15;7.55;;;5.22;;
42518;SDS011;28147;47.520;18.920;2024-02-26T13:17:42;7.28;;;5.35;;
42518;SDS011;28147;47.520;18.920;2024-02-26T13:20:08;7.18;;;5.18;;
42518;SDS011;28147;47.520;18.920;2024-02-26T13:22:35;8.10;;;5.28;;
42518;SDS011;28147;47.520;18.920;2024-02-26T13:25:00;4.88;;;3.88;;
42518;SDS011;28147;47.520;18.920;2024-02-26T13:27:28;7.35;;;4.18;;
42518;SDS011;28147;47.520;18.920;2024-02-26T13:30:09;7.15;;;5.10;;
42518;SDS011;28147;47.520;18.920;2024-02-26T13:32:36;6.35;;;4.68;;
42518;SDS011;28147;47.520;18.920;2024-02-26T13:35:09;7.40;;;5.00;;
42518;SDS011;28147;47.520;18.920;2024-02-26T13:37:36;6.55;;;4.82;;
42518;SDS011;28147;47.520;18.920;2024-02-26T13:40:09;6.45;;;4.75;;
42518;SDS011;28147;47.520;18.920;2024-02-26T13:42:36;7.13;;;5.05;;
42518;SDS011;28147;47.520;18.920;2024-02-26T13:45:02;6.75;;;4.35;;
42518;SDS011;28147;47.520;18.920;2024-02-26T13:47:30;9.80;;;5.03;;
42518;SDS011;28147;47.520;18.920;2024-02-26T13:49:56;6.70;;;4.88;;
42518;SDS011;28147;47.520;18.920;2024-02-26T13:52:22;6.43;;;4.90;;
42518;SDS011;28147;47.520;18.920;2024-02-26T13:54:47;7.25;;;4.97;;
42518;SDS011;28147;47.520;18.920;2024-02-26T13:57:13;8.90;;;5.70;;
42518;SDS011;28147;47.520;18.920;2024-02-26T13:59:38;6.25;;;4.60;;
42518;SDS011;28147;47.520;18.920;2024-02-26T14:02:07;6.60;;;4.50;;
42518;SDS011;28147;47.520;18.920;2024-02-26T14:04:33;7.43;;;4.20;;
42518;SDS011;28147;47.520;18.920;2024-02-26T14:06:58;7.35;;;4.93;;
42518;SDS011;28147;47.520;18.920;2024-02-26T14:09:24;6.55;;;4.53;;
42518;SDS011;28147;47.520;18.920;2024-02-26T14:11:49;6.75;;;4.97;;
42518;SDS011;28147;47.520;18.920;2024-02-26T14:14:14;7.47;;;5.40;;
42518;SDS011;28147;47.520;18.920;2024-02-26T14:16:40;7.50;;;4.80;;
42518;SDS011;28147;47.520;18.920;2024-02-26T14:19:05;7.97;;;5.03;;
42518;SDS011;28147;47.520;18.920;2024-02-26T14:21:31;9.18;;;5.07;;
42518;SDS011;28147;47.520;18.920;2024-02-26T14:23:56;6.32;;;4.20;;
42518;SDS011;28147;47.520;18.920;2024-02-26T14:26:24;5.97;;;4.43;;